createdAt,value
2018-12-09T00:02:19.233Z,4.80
2018-12-09T00:04:55.095Z,4.70
2018-12-09T00:07:23.760Z,4.70
2018-12-09T00:09:59.561Z,4.80
2018-12-09T00:12:28.277Z,4.80
2018-12-09T00:14:56.861Z,4.80
2018-12-09T00:17:25.545Z,4.80
2018-12-09T00:19:55.782Z,4.80
2018-12-09T00:22:24.443Z,4.80
2018-12-09T00:24:53.030Z,4.80
2018-12-09T00:27:29.645Z,4.80
2018-12-09T00:29:58.273Z,4.90
2018-12-09T00:32:26.845Z,4.90
2018-12-09T00:34:56.151Z,4.90
2018-12-09T00:37:24.838Z,4.90
2018-12-09T00:40:01.531Z,4.90
2018-12-09T00:42:30.167Z,4.90
2018-12-09T00:45:00.781Z,4.90
2018-12-09T00:47:29.516Z,4.90
2018-12-09T00:49:58.152Z,5.00
2018-12-09T00:52:26.740Z,4.90
2018-12-09T00:54:57.385Z,4.90
2018-12-09T00:57:26.040Z,4.80
2018-12-09T00:59:54.649Z,4.80
2018-12-09T01:02:23.262Z,4.70
2018-12-09T01:04:52.668Z,4.70
2018-12-09T01:07:21.245Z,4.70
2018-12-09T01:10:00.846Z,4.60
2018-12-09T01:12:29.958Z,4.70
2018-12-09T01:15:00.710Z,4.60
2018-12-09T01:17:29.263Z,4.60
2018-12-09T01:19:58.650Z,4.70
2018-12-09T01:22:27.271Z,4.60
2018-12-09T01:24:59.638Z,4.60
2018-12-09T01:27:29.101Z,4.50
2018-12-09T01:29:57.773Z,4.60
2018-12-09T01:32:26.823Z,4.60
2018-12-09T01:34:55.736Z,4.50
2018-12-09T01:37:31.555Z,4.50
2018-12-09T01:40:00.181Z,4.50
2018-12-09T01:42:30.545Z,4.50
2018-12-09T01:44:59.120Z,4.50
2018-12-09T01:47:27.732Z,4.60
2018-12-09T01:49:56.357Z,4.60
2018-12-09T01:52:25.104Z,4.60
2018-12-09T01:54:54.720Z,4.70
2018-12-09T01:57:30.803Z,4.70
2018-12-09T01:59:59.692Z,4.70
2018-12-09T02:02:31.149Z,4.80
2018-12-09T02:04:59.752Z,4.80
2018-12-09T02:07:35.492Z,4.80
2018-12-09T02:10:04.708Z,4.80
2018-12-09T02:12:42.018Z,4.90
2018-12-09T02:15:10.737Z,4.90
2018-12-09T02:17:39.873Z,4.90
2018-12-09T02:20:09.311Z,4.90
2018-12-09T02:22:37.938Z,4.90
2018-12-09T02:25:10.891Z,4.90
2018-12-09T02:27:40.044Z,4.90
2018-12-09T02:30:08.842Z,4.90
2018-12-09T02:32:37.430Z,4.90
2018-12-09T02:35:06.160Z,4.80
2018-12-09T02:37:34.789Z,4.80
2018-12-09T02:40:03.493Z,4.80
2018-12-09T02:42:34.141Z,4.80
2018-12-09T02:45:03.202Z,4.80
2018-12-09T02:47:46.018Z,4.80
2018-12-09T02:50:14.580Z,4.80
2018-12-09T02:52:50.907Z,4.80
2018-12-09T02:55:19.689Z,4.80
2018-12-09T02:57:50.953Z,4.90
2018-12-09T03:00:20.202Z,4.90
2018-12-09T03:02:51.290Z,4.90
2018-12-09T03:05:20.132Z,4.90
2018-12-09T03:07:48.976Z,4.90
2018-12-09T03:10:17.893Z,5.00
2018-12-09T03:12:52.253Z,5.00
2018-12-09T03:15:21.213Z,5.00
2018-12-09T03:17:51.218Z,5.00
2018-12-09T03:20:19.806Z,5.00
2018-12-09T03:22:48.441Z,5.10
2018-12-09T03:25:17.198Z,5.10
2018-12-09T03:27:53.409Z,5.10
2018-12-09T03:30:21.996Z,5.10
2018-12-09T03:32:54.174Z,5.10
2018-12-09T03:35:22.789Z,5.10
2018-12-09T03:37:53.692Z,5.10
2018-12-09T03:40:22.297Z,5.10
2018-12-09T03:42:55.064Z,5.10
2018-12-09T03:45:23.653Z,5.10
2018-12-09T03:47:52.279Z,5.10
2018-12-09T03:50:20.973Z,5.00
2018-12-09T03:52:49.677Z,5.10
2018-12-09T03:55:18.301Z,5.00
2018-12-09T03:57:47.216Z,5.10
2018-12-09T04:00:17.053Z,5.00
2018-12-09T04:02:47.375Z,5.10
2018-12-09T04:05:15.998Z,5.00
2018-12-09T04:07:58.563Z,5.00
2018-12-09T04:10:27.427Z,5.00
2018-12-09T04:12:56.179Z,4.90
2018-12-09T04:15:24.806Z,4.80
2018-12-09T04:17:56.880Z,4.80
2018-12-09T04:20:26.506Z,4.70
2018-12-09T04:22:56.134Z,4.60
2018-12-09T04:25:24.707Z,4.50
2018-12-09T04:27:53.332Z,4.50
2018-12-09T04:30:21.937Z,4.50
2018-12-09T04:32:58.446Z,4.50
2018-12-09T04:35:27.155Z,4.40
2018-12-09T04:37:55.806Z,4.30
2018-12-09T04:40:24.428Z,4.20
2018-12-09T04:42:54.788Z,4.20
2018-12-09T04:45:23.344Z,4.20
2018-12-09T04:47:59.036Z,4.10
2018-12-09T04:50:27.651Z,4.00
2018-12-09T04:52:56.264Z,4.00
2018-12-09T04:55:24.878Z,4.00
2018-12-09T04:57:53.455Z,3.90
2018-12-09T05:00:33.520Z,3.90
2018-12-09T05:03:02.138Z,3.80
2018-12-09T05:05:32.776Z,3.80
2018-12-09T05:08:02.194Z,3.70
2018-12-09T05:10:30.877Z,3.80
2018-12-09T05:12:59.951Z,3.70
2018-12-09T05:15:28.728Z,3.70
2018-12-09T05:17:58.362Z,3.60
2018-12-09T05:20:27.019Z,3.60
2018-12-09T05:22:58.771Z,3.50
2018-12-09T05:25:27.389Z,3.50
2018-12-09T05:27:56.123Z,3.50
2018-12-09T05:30:24.737Z,3.50
2018-12-09T05:32:54.307Z,3.50
2018-12-09T05:35:23.090Z,3.50
2018-12-09T05:37:51.816Z,3.40
2018-12-09T05:40:20.525Z,3.40
2018-12-09T05:42:56.905Z,3.40
2018-12-09T05:45:25.883Z,3.40
2018-12-09T05:48:05.047Z,3.40
2018-12-09T05:50:33.634Z,3.40
2018-12-09T05:53:07.544Z,3.40
2018-12-09T05:55:36.201Z,3.40
2018-12-09T05:58:08.441Z,3.40
2018-12-09T06:00:37.152Z,3.40
2018-12-09T06:03:07.007Z,3.40
2018-12-09T06:05:36.263Z,3.30
2018-12-09T06:08:05.070Z,3.30
2018-12-09T06:10:33.893Z,3.30
2018-12-09T06:13:16.118Z,3.30
2018-12-09T06:15:44.949Z,3.20
2018-12-09T06:18:13.772Z,3.20
2018-12-09T06:20:42.442Z,3.20
2018-12-09T06:23:21.618Z,3.10
2018-12-09T06:25:50.285Z,3.10
2018-12-09T06:28:18.878Z,3.20
2018-12-09T06:30:47.591Z,3.20
2018-12-09T06:33:17.453Z,3.20
2018-12-09T06:35:46.077Z,3.20
2018-12-09T06:38:18.651Z,3.20
2018-12-09T06:40:47.988Z,3.10
2018-12-09T06:43:16.731Z,3.10
2018-12-09T06:45:45.429Z,3.10
2018-12-09T06:48:14.861Z,3.10
2018-12-09T06:50:43.463Z,3.10
2018-12-09T06:53:12.129Z,3.10
2018-12-09T06:55:44.352Z,3.10
2018-12-09T06:58:13.002Z,3.10
2018-12-09T07:00:42.709Z,3.10
2018-12-09T07:03:11.483Z,3.10
2018-12-09T07:05:40.132Z,3.20
2018-12-09T07:08:12.556Z,3.30
2018-12-09T07:10:41.512Z,3.30
2018-12-09T07:13:10.363Z,3.40
2018-12-09T07:15:38.988Z,3.40
2018-12-09T07:18:14.954Z,3.50
2018-12-09T07:20:43.550Z,3.50
2018-12-09T07:23:12.294Z,3.60
2018-12-09T07:25:40.955Z,3.60
2018-12-09T07:28:16.911Z,3.60
2018-12-09T07:30:45.575Z,3.70
2018-12-09T07:33:22.284Z,3.70
2018-12-09T07:35:50.975Z,3.70
2018-12-09T07:38:19.637Z,3.80
2018-12-09T07:40:48.337Z,3.90
2018-12-09T07:43:17.371Z,3.90
2018-12-09T07:45:46.749Z,3.90
2018-12-09T07:48:15.376Z,4.00
2018-12-09T07:50:47.898Z,4.10
2018-12-09T07:53:16.621Z,4.00
2018-12-09T07:55:46.274Z,4.10
2018-12-09T07:58:14.942Z,4.10
2018-12-09T08:00:43.727Z,4.20
2018-12-09T08:03:12.439Z,4.20
2018-12-09T08:05:41.221Z,4.20
2018-12-09T08:08:09.969Z,4.30
2018-12-09T08:10:38.691Z,4.30
2018-12-09T08:13:08.893Z,4.30
2018-12-09T08:15:37.475Z,4.30
2018-12-09T08:18:06.111Z,4.30
2018-12-09T08:20:34.781Z,4.30
2018-12-09T08:23:10.927Z,4.20
2018-12-09T08:25:39.565Z,4.20
2018-12-09T08:28:08.185Z,4.30
2018-12-09T08:30:37.786Z,4.20
2018-12-09T08:33:06.416Z,4.20
2018-12-09T08:35:39.152Z,4.20
2018-12-09T08:38:07.897Z,4.20
2018-12-09T08:40:36.630Z,4.30
2018-12-09T08:43:05.373Z,4.30
2018-12-09T08:45:34.129Z,4.40
2018-12-09T08:48:02.757Z,4.50
2018-12-09T08:50:31.365Z,4.50
2018-12-09T08:53:00.079Z,4.50
2018-12-09T08:55:28.719Z,4.50
2018-12-09T08:58:01.094Z,4.60
2018-12-09T09:00:29.743Z,4.60
2018-12-09T09:02:58.315Z,4.60
2018-12-09T09:05:27.041Z,4.60
2018-12-09T09:07:55.654Z,4.60
2018-12-09T09:10:25.727Z,4.60
2018-12-09T09:12:54.378Z,4.50
2018-12-09T09:15:23.227Z,4.50
2018-12-09T09:17:55.022Z,4.40
2018-12-09T09:20:23.639Z,4.30
2018-12-09T09:22:54.415Z,4.30
2018-12-09T09:25:23.112Z,4.30
2018-12-09T09:27:51.748Z,4.30
2018-12-09T09:30:20.364Z,4.30
2018-12-09T09:32:49.039Z,4.30
2018-12-09T09:35:17.651Z,4.30
2018-12-09T09:37:47.361Z,4.30
2018-12-09T09:40:16.028Z,4.40
2018-12-09T09:42:44.633Z,4.50
2018-12-09T09:45:17.947Z,4.60
2018-12-09T09:47:46.581Z,4.60
2018-12-09T09:50:16.202Z,4.60
2018-12-09T09:52:44.939Z,4.60
2018-12-09T09:55:14.641Z,4.50
2018-12-09T09:57:43.498Z,4.50
2018-12-09T10:00:12.210Z,4.60
2018-12-09T10:02:40.878Z,4.60
2018-12-09T10:05:09.611Z,4.60
2018-12-09T10:07:38.455Z,4.60
2018-12-09T10:10:07.335Z,4.60
2018-12-09T10:12:44.275Z,4.60
2018-12-09T10:15:13.589Z,4.60
2018-12-09T10:17:42.440Z,4.60
2018-12-09T10:20:11.093Z,4.60
2018-12-09T10:22:40.781Z,4.60
2018-12-09T10:25:09.369Z,4.60
2018-12-09T10:27:39.155Z,4.50
2018-12-09T10:30:08.747Z,4.50
2018-12-09T10:32:37.423Z,4.50
2018-12-09T10:35:06.319Z,4.50
2018-12-09T10:37:34.976Z,4.60
2018-12-09T10:40:04.687Z,4.60
2018-12-09T10:42:33.370Z,4.50
2018-12-09T10:45:02.001Z,4.50
2018-12-09T10:47:34.741Z,4.50
2018-12-09T10:50:03.599Z,4.50
2018-12-09T10:52:32.214Z,4.50
2018-12-09T10:55:03.332Z,4.50
2018-12-09T10:57:31.940Z,4.50
2018-12-09T11:00:00.619Z,4.50
2018-12-09T11:02:29.259Z,4.60
2018-12-09T11:04:57.896Z,4.60
2018-12-09T11:07:33.878Z,4.60
2018-12-09T11:10:02.493Z,4.60
2018-12-09T11:12:31.088Z,4.60
2018-12-09T11:15:00.404Z,4.60
2018-12-09T11:17:29.042Z,4.60
2018-12-09T11:19:57.773Z,4.70
2018-12-09T11:22:26.397Z,4.70
2018-12-09T11:24:55.029Z,4.60
2018-12-09T11:27:23.628Z,4.70
2018-12-09T11:29:59.665Z,4.70
2018-12-09T11:32:28.275Z,4.80
2018-12-09T11:34:57.013Z,4.80
2018-12-09T11:37:25.727Z,4.80
2018-12-09T11:39:54.488Z,4.80
2018-12-09T11:42:23.202Z,4.80
2018-12-09T11:44:51.952Z,4.90
2018-12-09T11:47:20.628Z,4.90
2018-12-09T11:49:49.407Z,5.00
2018-12-09T11:52:18.194Z,5.00
2018-12-09T11:54:47.372Z,5.00
2018-12-09T11:57:16.753Z,5.00
2018-12-09T12:00:19.231Z,5.10
2018-12-09T12:03:08.906Z,5.10
2018-12-09T12:05:39.294Z,5.20
2018-12-09T12:08:07.877Z,5.20
2018-12-09T12:10:36.539Z,5.30
2018-12-09T12:13:17.191Z,5.30
2018-12-09T12:15:45.853Z,5.40
2018-12-09T12:18:14.590Z,5.40
2018-12-09T12:20:43.365Z,5.40
2018-12-09T12:23:11.998Z,5.40
2018-12-09T12:25:40.683Z,5.40
2018-12-09T12:28:09.324Z,5.40
2018-12-09T12:30:37.921Z,5.40
2018-12-09T12:33:06.636Z,5.50
2018-12-09T12:35:35.294Z,5.50
2018-12-09T12:38:03.956Z,5.60
2018-12-09T12:40:33.894Z,5.60
2018-12-09T12:43:03.974Z,5.60
2018-12-09T12:45:32.627Z,5.60
2018-12-09T12:48:02.593Z,5.60
2018-12-09T12:53:52.757Z,5.60
2018-12-09T12:56:21.355Z,5.60
2018-12-09T12:58:49.987Z,5.60
2018-12-09T13:01:18.730Z,5.60
2018-12-09T13:03:47.480Z,5.70
2018-12-09T13:06:17.189Z,5.60
2018-12-09T13:08:45.909Z,5.70
2018-12-09T13:11:14.542Z,5.70
2018-12-09T13:13:43.278Z,5.70
2018-12-09T13:16:11.984Z,5.70
2018-12-09T13:18:40.645Z,5.70
2018-12-09T13:21:22.450Z,5.70
2018-12-09T13:23:51.076Z,5.70
2018-12-09T13:26:20.302Z,5.70
2018-12-09T13:28:49.217Z,5.70
2018-12-09T13:31:18.068Z,5.70
2018-12-09T13:33:46.850Z,5.70
2018-12-09T13:36:26.420Z,5.70
2018-12-09T13:38:55.032Z,5.80
2018-12-09T13:41:34.725Z,5.70
2018-12-09T13:44:24.836Z,5.80
2018-12-09T13:46:53.510Z,5.80
2018-12-09T13:49:22.187Z,5.80
2018-12-09T13:52:18.155Z,5.80
2018-12-09T13:54:47.004Z,5.80
2018-12-09T13:57:15.607Z,5.80
2018-12-09T13:59:44.239Z,5.90
2018-12-09T14:02:12.803Z,5.80
2018-12-09T14:04:41.403Z,5.90
2018-12-09T14:07:10.021Z,5.80
2018-12-09T14:09:38.597Z,5.80
2018-12-09T14:12:07.184Z,5.90
2018-12-09T14:14:38.837Z,5.90
2018-12-09T14:17:07.541Z,5.80
2018-12-09T14:19:36.116Z,5.80
2018-12-09T14:22:04.869Z,5.80
2018-12-09T14:24:33.473Z,5.80
2018-12-09T14:27:02.062Z,5.80
2018-12-09T14:29:30.846Z,5.90
2018-12-09T14:31:59.757Z,5.90
2018-12-09T14:34:28.483Z,5.90
2018-12-09T14:36:57.100Z,5.90
2018-12-09T14:39:25.694Z,5.80
2018-12-09T14:41:54.270Z,5.80
2018-12-09T14:44:22.884Z,5.90
2018-12-09T14:46:51.486Z,5.80
2018-12-09T14:49:20.061Z,5.90
2018-12-09T14:51:48.629Z,5.90
2018-12-09T14:54:17.197Z,5.90
2018-12-09T14:56:45.768Z,5.90
2018-12-09T14:59:14.382Z,6.00
2018-12-09T15:01:42.986Z,6.00
2018-12-09T15:04:11.592Z,6.10
2018-12-09T15:06:40.375Z,6.10
2018-12-09T15:09:08.943Z,6.10
2018-12-09T15:11:37.593Z,6.10
2018-12-09T15:14:06.291Z,6.20
2018-12-09T15:16:35.546Z,6.20
2018-12-09T15:19:04.162Z,6.20
2018-12-09T15:21:32.758Z,6.20
2018-12-09T15:24:01.454Z,6.20
2018-12-09T15:26:30.771Z,6.30
2018-12-09T15:28:59.398Z,6.30
2018-12-09T15:31:27.999Z,6.30
2018-12-09T15:33:56.592Z,6.30
2018-12-09T15:36:25.218Z,6.30
2018-12-09T15:38:53.793Z,6.30
2018-12-09T15:41:25.805Z,6.40
2018-12-09T15:43:54.405Z,6.40
2018-12-09T15:46:23.016Z,6.40
2018-12-09T15:48:51.629Z,6.40
2018-12-09T15:51:20.226Z,6.30
2018-12-09T15:53:48.804Z,6.30
2018-12-09T15:56:17.468Z,6.40
2018-12-09T15:58:55.302Z,6.40
2018-12-09T16:01:23.943Z,6.40
2018-12-09T16:03:56.556Z,6.40
2018-12-09T16:06:25.287Z,6.40
2018-12-09T16:08:54.003Z,6.40
2018-12-09T16:11:38.020Z,6.30
2018-12-09T16:14:06.595Z,6.40
2018-12-09T16:16:35.332Z,6.40
2018-12-09T16:19:19.271Z,6.40
2018-12-09T16:21:47.851Z,6.30
2018-12-09T16:24:16.643Z,6.30
2018-12-09T16:26:45.245Z,6.30
2018-12-09T16:29:13.808Z,6.20
2018-12-09T16:31:42.393Z,6.10
2018-12-09T16:34:11.080Z,6.00
2018-12-09T16:36:52.361Z,6.00
2018-12-09T16:39:21.016Z,5.90
2018-12-09T16:41:49.623Z,5.90
2018-12-09T16:44:18.227Z,5.80
2018-12-09T16:46:46.865Z,5.80
2018-12-09T16:49:28.728Z,5.70
2018-12-09T16:51:57.344Z,5.80
2018-12-09T16:54:25.929Z,5.80
2018-12-09T16:56:54.524Z,5.70
2018-12-09T16:59:23.151Z,5.70
2018-12-09T17:01:51.749Z,5.60
2018-12-09T17:04:29.267Z,5.60
2018-12-09T17:06:57.993Z,5.70
2018-12-09T17:09:27.466Z,5.70
2018-12-09T17:11:56.071Z,5.60
2018-12-09T17:14:24.669Z,5.60
2018-12-09T17:16:53.276Z,5.70
2018-12-09T17:19:21.889Z,5.70
2018-12-09T17:21:50.480Z,5.80
2018-12-09T17:24:19.219Z,5.90
2018-12-09T17:26:47.878Z,5.90
2018-12-09T17:29:16.499Z,6.00
2018-12-09T17:32:00.633Z,6.00
2018-12-09T17:34:30.742Z,6.00
2018-12-09T17:37:13.077Z,6.00
2018-12-09T17:39:41.676Z,6.00
2018-12-09T17:42:10.294Z,6.00
2018-12-09T17:44:38.901Z,5.90
2018-12-09T17:47:07.615Z,5.90
2018-12-09T17:49:36.207Z,5.90
2018-12-09T17:52:17.304Z,5.90
2018-12-09T17:54:53.628Z,5.90
2018-12-09T17:57:22.259Z,5.90
2018-12-09T18:00:04.289Z,5.90
2018-12-09T18:02:32.937Z,5.90
2018-12-09T18:05:01.514Z,5.80
2018-12-09T18:07:51.554Z,5.90
2018-12-09T18:10:54.944Z,5.90
2018-12-09T18:13:24.667Z,6.00
2018-12-09T18:16:00.070Z,6.00
2018-12-09T18:18:32.172Z,6.00
2018-12-09T18:21:00.780Z,6.00
2018-12-09T18:23:33.305Z,6.00
2018-12-09T18:26:02.168Z,6.00
2018-12-09T18:28:30.850Z,6.00
2018-12-09T18:31:12.391Z,5.90
2018-12-09T18:33:48.813Z,5.80
2018-12-09T18:36:34.366Z,5.80
2018-12-09T18:39:04.081Z,5.70
2018-12-09T18:41:32.694Z,5.70
2018-12-09T18:44:01.363Z,5.60
2018-12-09T18:46:30.740Z,5.60
2018-12-09T18:48:59.401Z,5.70
2018-12-09T18:51:28.084Z,5.70
2018-12-09T18:53:56.721Z,5.70
2018-12-09T18:56:53.335Z,5.80
2018-12-09T18:59:22.016Z,5.80
2018-12-09T19:01:54.586Z,5.80
2018-12-09T19:04:35.776Z,5.70
2018-12-09T19:07:19.436Z,5.70
2018-12-09T19:09:48.102Z,5.70
2018-12-09T19:12:16.864Z,5.70
2018-12-09T19:14:45.596Z,5.70
2018-12-09T19:17:14.182Z,5.70
2018-12-09T19:19:43.520Z,5.70
2018-12-09T19:22:12.189Z,5.70
2018-12-09T19:24:40.822Z,5.70
2018-12-09T19:27:09.725Z,5.80
2018-12-09T19:29:42.367Z,5.70
2018-12-09T19:32:18.347Z,5.80
2018-12-09T19:34:47.109Z,5.70
2018-12-09T19:37:23.151Z,5.80
2018-12-09T19:39:55.653Z,5.80
2018-12-09T19:42:31.545Z,5.80
2018-12-09T19:45:00.467Z,5.70
2018-12-09T19:47:44.203Z,5.70
2018-12-09T19:50:20.593Z,5.70
2018-12-09T19:52:59.339Z,5.70
2018-12-09T19:55:38.388Z,5.60
2018-12-09T19:58:07.106Z,5.60
2018-12-09T20:00:37.675Z,5.70
2018-12-09T20:03:23.724Z,5.70
2018-12-09T20:05:52.526Z,5.70
2018-12-09T20:08:28.391Z,5.70
2018-12-09T20:10:57.201Z,5.80
2018-12-09T20:13:25.867Z,5.80
2018-12-09T20:15:54.623Z,5.80
2018-12-09T20:18:23.310Z,5.80
2018-12-09T20:21:13.249Z,5.80
2018-12-09T20:23:41.887Z,5.80
2018-12-09T20:26:10.532Z,5.90
2018-12-09T20:28:39.362Z,5.90
2018-12-09T20:31:07.976Z,5.80
2018-12-09T20:33:36.876Z,5.80
2018-12-09T20:36:13.363Z,5.80
2018-12-09T20:38:45.538Z,5.70
2018-12-09T20:41:17.834Z,5.70
2018-12-09T20:43:53.779Z,5.70
2018-12-09T20:46:22.423Z,5.70
2018-12-09T20:48:51.072Z,5.70
2018-12-09T20:51:19.737Z,5.70
2018-12-09T20:53:48.519Z,5.70
2018-12-09T20:56:17.211Z,5.80
2018-12-09T20:58:45.868Z,5.80
2018-12-09T21:01:14.533Z,5.80
2018-12-09T21:03:43.140Z,5.80
2018-12-09T21:06:28.403Z,5.90
2018-12-09T21:08:57.054Z,5.90
2018-12-09T21:11:25.680Z,5.80
2018-12-09T21:13:54.475Z,5.90
2018-12-09T21:16:23.230Z,5.90
2018-12-09T21:18:51.871Z,5.90
2018-12-09T21:21:20.524Z,5.90
2018-12-09T21:23:49.123Z,5.90
2018-12-09T21:26:17.736Z,5.90
2018-12-09T21:28:46.544Z,5.90
2018-12-09T21:31:15.217Z,5.90
2018-12-09T21:33:43.915Z,5.90
2018-12-09T21:36:12.593Z,5.90
2018-12-09T21:38:42.999Z,5.90
2018-12-09T21:41:11.853Z,5.90
2018-12-09T21:43:40.491Z,6.00
2018-12-09T21:46:09.136Z,5.90
2018-12-09T21:48:37.742Z,5.90
2018-12-09T21:51:06.425Z,5.90
2018-12-09T21:53:35.370Z,5.90
2018-12-09T21:56:03.997Z,6.00
2018-12-09T21:58:32.706Z,6.00
2018-12-09T22:01:01.321Z,6.00
2018-12-09T22:03:29.948Z,6.00
2018-12-09T22:05:59.408Z,6.00
2018-12-09T22:08:27.998Z,6.00
2018-12-09T22:10:56.578Z,6.00
2018-12-09T22:13:25.205Z,6.00
2018-12-09T22:15:53.819Z,6.00
2018-12-09T22:18:22.441Z,6.00
2018-12-09T22:20:51.034Z,6.00
2018-12-09T22:23:19.633Z,6.00
2018-12-09T22:25:48.240Z,5.90
2018-12-09T22:28:16.934Z,5.90
2018-12-09T22:30:45.875Z,6.00
2018-12-09T22:33:14.568Z,6.00
2018-12-09T22:35:43.225Z,6.00
2018-12-09T22:38:11.853Z,6.00
2018-12-09T22:40:40.552Z,6.00
2018-12-09T22:43:35.705Z,6.00
2018-12-09T22:46:04.322Z,6.00
2018-12-09T22:48:32.905Z,6.00
2018-12-09T22:51:01.520Z,6.00
2018-12-09T22:53:30.137Z,6.00
2018-12-09T22:56:12.432Z,6.00
2018-12-09T22:58:41.067Z,6.00
2018-12-09T23:01:14.843Z,6.00
2018-12-09T23:03:43.459Z,6.00
2018-12-09T23:06:12.108Z,6.00
2018-12-09T23:08:40.755Z,6.10
2018-12-09T23:11:09.386Z,6.10
2018-12-09T23:13:37.984Z,6.10
2018-12-09T23:16:06.673Z,6.10
2018-12-09T23:18:35.250Z,6.10
2018-12-09T23:21:03.949Z,6.10
2018-12-09T23:23:32.812Z,6.10
2018-12-09T23:26:01.432Z,6.10
2018-12-09T23:28:30.047Z,6.10
2018-12-09T23:30:59.010Z,6.00
2018-12-09T23:33:27.617Z,6.00
2018-12-09T23:35:56.199Z,6.00
2018-12-09T23:38:24.823Z,6.00
2018-12-09T23:40:53.427Z,6.00
2018-12-09T23:43:22.029Z,6.00
2018-12-09T23:45:50.759Z,6.10
2018-12-09T23:48:19.934Z,6.00
2018-12-09T23:50:48.536Z,6.10
2018-12-09T23:53:17.168Z,6.10
2018-12-09T23:55:45.805Z,6.10
2018-12-09T23:58:14.414Z,6.10
